Terminal Aerodrome Forecast
Issued by NWS Boston, MA

Home | Current Version | Previous Version | Text Only | Print | Product List | Glossary On
Versions: 1 2 3 4 5 6 7 8 9 10 11 12 13 14 15 16 17 18 19 20 21
000
FTUS41 KBOX 281136
TAFPVD
TAF
KPVD 281136Z 2812/0112 13006KT P6SM OVC060
     FM282100 16007KT P6SM BKN015
     FM010100 15006KT P6SM VCSH OVC010
     FM010400 15005KT P6SM -SHRA OVC040
     FM010600 17006KT 3SM -RA BR OVC010
     FM011000 18008KT 3SM BR VCSH OVC010=

USA.gov is the U.S. government's official web portal to all federal, state and local government web resources and services.